createdAt,value
2023-04-28T00:00:58.023Z,1.0000
2023-04-28T00:02:02.304Z,1.0167
2023-04-28T00:03:06.662Z,1.2000
2023-04-28T00:04:11.097Z,1.3667
2023-04-28T00:05:15.604Z,1.6167
2023-04-28T00:06:19.928Z,1.7833
2023-04-28T00:07:24.189Z,1.3500
2023-04-28T00:08:28.443Z,1.2167
2023-04-28T00:09:32.720Z,1.4000
2023-04-28T00:10:37.010Z,1.4000
2023-04-28T00:11:41.289Z,1.4000
2023-04-28T00:12:45.580Z,1.3167
2023-04-28T00:13:49.838Z,1.1500
2023-04-28T00:14:51.238Z,1.0000
2023-04-28T00:15:55.533Z,1.2000
2023-04-28T00:16:59.843Z,1.3500
2023-04-28T00:18:04.147Z,1.4000
2023-04-28T00:19:08.430Z,1.4000
2023-04-28T00:20:12.686Z,1.2167
2023-04-28T00:21:16.989Z,1.0167
2023-04-28T00:22:21.257Z,1.0667
2023-04-28T00:23:25.555Z,1.2500
2023-04-28T00:24:29.817Z,1.4667
2023-04-28T00:25:34.140Z,1.6167
2023-04-28T00:26:38.438Z,1.6333
2023-04-28T00:27:42.705Z,1.2667
2023-04-28T00:28:46.984Z,1.2000
2023-04-28T00:29:51.546Z,1.3667
2023-04-28T00:30:55.845Z,1.4000
2023-04-28T00:32:00.208Z,1.4000
2023-04-28T00:33:04.687Z,1.4000
2023-04-28T00:34:08.951Z,1.1833
2023-04-28T00:35:13.234Z,1.0000
2023-04-28T00:36:17.528Z,1.1667
2023-04-28T00:37:21.802Z,1.3667
2023-04-28T00:38:26.097Z,1.5000
2023-04-28T00:39:30.349Z,1.6000
2023-04-28T00:40:34.668Z,1.3667
2023-04-28T00:41:38.906Z,1.1167
2023-04-28T00:42:43.193Z,1.0333
2023-04-28T00:43:47.450Z,1.2500
2023-04-28T00:44:51.752Z,1.4500
2023-04-28T00:45:56.042Z,1.7000
2023-04-28T00:47:00.286Z,1.7667
2023-04-28T00:48:04.642Z,1.3333
2023-04-28T00:49:08.946Z,1.2000
2023-04-28T00:50:13.236Z,1.3500
2023-04-28T00:51:17.517Z,1.4000
2023-04-28T00:52:22.751Z,1.5333
2023-04-28T00:53:27.043Z,1.4833
2023-04-28T00:54:31.308Z,1.2833
2023-04-28T00:55:35.618Z,1.0500
2023-04-28T00:56:39.907Z,1.1333
2023-04-28T00:57:44.185Z,1.3500
2023-04-28T00:58:48.475Z,1.4833
2023-04-28T00:59:52.733Z,1.6000
2023-04-28T01:00:57.039Z,1.4667
2023-04-28T01:02:01.325Z,1.2167
2023-04-28T01:03:05.991Z,1.2167
2023-04-28T01:04:10.440Z,1.4000
2023-04-28T01:05:15.074Z,1.4000
2023-04-28T01:06:19.317Z,1.5667
2023-04-28T01:07:23.591Z,1.4667
2023-04-28T01:08:27.890Z,1.2167
2023-04-28T01:09:32.145Z,1.0167
2023-04-28T01:10:36.438Z,1.2667
2023-04-28T01:11:40.702Z,1.4500
2023-04-28T01:12:45.011Z,1.6000
2023-04-28T01:13:49.296Z,1.6667
2023-04-28T01:14:53.839Z,1.3500
2023-04-28T01:15:58.100Z,1.1333
2023-04-28T01:17:02.458Z,1.2000
2023-04-28T01:18:07.096Z,1.4000
2023-04-28T01:19:11.344Z,1.5833
2023-04-28T01:20:15.644Z,1.6000
2023-04-28T01:21:19.925Z,1.4833
2023-04-28T01:22:24.209Z,1.2333
2023-04-28T01:23:28.523Z,1.2000
2023-04-28T01:24:32.805Z,1.4000
2023-04-28T01:25:37.068Z,1.4500
2023-04-28T01:26:41.368Z,1.6000
2023-04-28T01:27:45.656Z,1.4833
2023-04-28T01:28:49.936Z,1.2500
2023-04-28T01:29:54.228Z,1.0833
2023-04-28T01:30:58.511Z,1.3000
2023-04-28T01:32:02.873Z,1.4167
2023-04-28T01:33:07.207Z,1.6000
2023-04-28T01:34:11.571Z,1.5833
2023-04-28T01:35:15.835Z,1.3333
2023-04-28T01:36:20.126Z,1.2000
2023-04-28T01:37:24.403Z,1.3000
2023-04-28T01:38:28.692Z,1.4167
2023-04-28T01:39:32.978Z,1.6000
2023-04-28T01:40:37.649Z,1.6833
2023-04-28T01:41:41.927Z,1.4333
2023-04-28T01:42:46.199Z,1.2000
2023-04-28T01:43:50.483Z,1.2167
2023-04-28T01:44:54.779Z,1.4000
2023-04-28T01:45:59.086Z,1.5667
2023-04-28T01:47:03.374Z,1.6667
2023-04-28T01:48:07.771Z,1.6167
2023-04-28T01:49:12.098Z,1.2667
2023-04-28T01:50:16.378Z,1.1167
2023-04-28T01:51:20.653Z,1.3167
2023-04-28T01:52:24.923Z,1.4833
2023-04-28T01:53:29.188Z,1.7333
2023-04-28T01:54:33.498Z,1.8500
2023-04-28T01:55:37.800Z,1.5167
2023-04-28T01:56:42.077Z,1.2000
2023-04-28T01:57:46.626Z,1.3167
2023-04-28T01:58:50.916Z,1.4833
2023-04-28T01:59:55.187Z,1.7000
2023-04-28T02:00:59.465Z,1.8000
2023-04-28T02:02:03.768Z,1.5333
2023-04-28T02:03:08.212Z,1.2167
2023-04-28T02:04:12.611Z,1.2000
2023-04-28T02:05:24.742Z,1.4000
2023-04-28T02:06:29.028Z,1.6000
2023-04-28T02:07:33.400Z,1.8000
2023-04-28T02:08:37.727Z,1.6667
2023-04-28T02:09:42.015Z,1.2833
2023-04-28T02:10:46.309Z,1.2333
2023-04-28T02:11:50.591Z,1.4167
2023-04-28T02:12:54.880Z,1.6000
2023-04-28T02:13:59.144Z,1.8000
2023-04-28T02:15:03.428Z,1.6500
2023-04-28T02:16:07.825Z,1.3000
2023-04-28T02:17:12.082Z,1.0500
2023-04-28T02:18:16.374Z,1.2500
2023-04-28T02:19:20.625Z,1.4500
2023-04-28T02:20:24.914Z,1.7167
2023-04-28T02:21:29.286Z,2.0000
2023-04-28T02:22:33.567Z,1.7167
2023-04-28T02:23:37.845Z,1.3500
2023-04-28T02:24:42.142Z,1.4833
2023-04-28T02:25:46.402Z,1.6000
2023-04-28T02:26:50.712Z,1.6000
2023-04-28T02:27:55.254Z,1.6000
2023-04-28T02:28:59.534Z,1.3833
2023-04-28T02:30:03.796Z,1.1167
2023-04-28T02:31:08.169Z,1.0500
2023-04-28T02:32:12.402Z,1.3167
2023-04-28T02:33:16.659Z,1.5167
2023-04-28T02:34:20.950Z,1.9000
2023-04-28T02:35:25.222Z,2.0333
2023-04-28T02:36:29.538Z,1.5333
2023-04-28T02:37:33.811Z,1.2167
2023-04-28T02:38:38.096Z,1.3500
2023-04-28T02:39:42.575Z,1.5667
2023-04-28T02:40:46.843Z,1.8667
2023-04-28T02:41:51.132Z,2.0000
2023-04-28T02:42:51.583Z,1.6000
2023-04-28T02:43:55.867Z,1.2500
2023-04-28T02:45:00.182Z,1.2500
2023-04-28T02:46:04.440Z,1.4500
2023-04-28T02:47:08.757Z,1.6833
2023-04-28T02:48:13.033Z,1.9167
2023-04-28T02:49:17.297Z,1.8000
2023-04-28T02:50:21.557Z,1.3333
2023-04-28T02:51:25.857Z,1.2000
2023-04-28T02:52:30.137Z,1.4333
2023-04-28T02:53:34.528Z,1.6500
2023-04-28T02:54:38.801Z,1.9167
2023-04-28T02:55:43.366Z,1.9500
2023-04-28T02:56:47.613Z,1.4667
2023-04-28T02:57:52.006Z,1.2000
2023-04-28T02:58:56.237Z,1.3333
2023-04-28T03:00:01.586Z,1.5833
2023-04-28T03:01:05.850Z,1.9000
2023-04-28T03:02:10.118Z,2.2000
2023-04-28T03:03:14.732Z,1.8167
2023-04-28T03:04:19.396Z,1.3167
2023-04-28T03:05:23.969Z,1.3167
2023-04-28T03:06:28.277Z,1.6000
2023-04-28T03:07:32.558Z,1.8500
2023-04-28T03:08:36.854Z,2.1333
2023-04-28T03:09:42.322Z,1.8667
2023-04-28T03:10:41.347Z,1.3455
2023-04-28T03:11:45.624Z,1.2500
2023-04-28T03:12:49.916Z,1.4833
2023-04-28T03:13:54.192Z,1.6833
2023-04-28T03:14:58.477Z,1.9000
2023-04-28T03:16:02.764Z,1.8333
2023-04-28T03:17:07.155Z,1.3167
2023-04-28T03:18:11.427Z,1.1667
2023-04-28T03:19:15.771Z,1.3167
2023-04-28T03:20:16.333Z,1.4909
2023-04-28T03:21:20.643Z,1.8167
2023-04-28T03:22:24.936Z,2.2667
2023-04-28T03:23:29.319Z,1.9833
2023-04-28T03:24:33.633Z,1.4500
2023-04-28T03:25:37.904Z,1.4667
2023-04-28T03:26:42.215Z,1.6167
2023-04-28T03:27:46.503Z,1.8833
2023-04-28T03:28:50.803Z,2.0000
2023-04-28T03:29:55.093Z,1.7000
2023-04-28T03:30:59.460Z,1.2667
2023-04-28T03:32:03.782Z,1.2000
2023-04-28T03:33:08.187Z,1.3667
2023-04-28T03:34:12.479Z,1.6000
2023-04-28T03:35:16.791Z,2.0500
2023-04-28T03:36:21.102Z,2.5333
2023-04-28T03:37:25.430Z,1.8500
2023-04-28T03:38:29.747Z,1.3500
2023-04-28T03:39:34.046Z,1.4500
2023-04-28T03:40:38.421Z,1.6167
2023-04-28T03:41:42.722Z,1.9333
2023-04-28T03:42:47.029Z,2.3333
2023-04-28T03:43:51.338Z,1.9333
2023-04-28T03:44:54.811Z,1.3556
2023-04-28T03:45:58.486Z,1.2000
2023-04-28T03:46:59.675Z,1.4000
2023-04-28T03:48:04.072Z,1.6333
2023-04-28T03:49:08.355Z,2.0500
2023-04-28T03:50:12.688Z,2.4833
2023-04-28T03:51:16.986Z,1.8000
2023-04-28T03:52:21.290Z,1.4833
2023-04-28T03:53:25.832Z,1.6667
2023-04-28T03:54:30.132Z,1.8000
2023-04-28T03:55:33.977Z,1.7556
2023-04-28T03:56:38.281Z,1.5000
2023-04-28T03:57:42.628Z,1.2167
2023-04-28T03:58:46.893Z,1.0000
2023-04-28T03:59:51.245Z,1.0833
2023-04-28T04:00:55.582Z,1.3167
2023-04-28T04:01:59.898Z,1.6833
2023-04-28T04:03:04.539Z,2.3667
2023-04-28T04:04:09.179Z,2.8333
2023-04-28T04:05:14.016Z,1.8000
2023-04-28T04:06:18.355Z,1.6500
2023-04-28T04:07:22.665Z,1.8000
2023-04-28T04:08:27.079Z,2.0333
2023-04-28T04:09:31.358Z,2.3167
2023-04-28T04:10:35.663Z,1.9667
2023-04-28T04:11:39.957Z,1.3167
2023-04-28T04:12:44.302Z,1.2000
2023-04-28T04:13:48.581Z,1.3667
2023-04-28T04:14:52.900Z,1.5333
2023-04-28T04:15:57.358Z,1.9500
2023-04-28T04:17:01.653Z,2.2667
2023-04-28T04:18:06.007Z,1.6500
2023-04-28T04:19:10.389Z,1.2333
2023-04-28T04:20:14.703Z,1.2667
2023-04-28T04:21:18.972Z,1.4667
2023-04-28T04:22:23.298Z,1.7833
2023-04-28T04:23:27.584Z,2.4500
2023-04-28T04:24:31.903Z,2.8000
2023-04-28T04:25:36.177Z,1.6833
2023-04-28T04:26:40.499Z,1.4000
2023-04-28T04:27:44.806Z,1.5167
2023-04-28T04:28:49.134Z,1.7000
2023-04-28T04:29:53.404Z,2.1500
2023-04-28T04:30:57.856Z,2.8500
2023-04-28T04:32:02.135Z,2.0833
2023-04-28T04:33:06.746Z,1.3833
2023-04-28T04:34:11.078Z,1.3167
2023-04-28T04:35:15.645Z,1.5500
2023-04-28T04:36:19.924Z,1.8333
2023-04-28T04:37:24.225Z,2.4333
2023-04-28T04:38:28.768Z,2.4667
2023-04-28T04:39:33.084Z,1.5500
2023-04-28T04:40:37.393Z,1.2000
2023-04-28T04:41:41.710Z,1.4167
2023-04-28T04:42:46.001Z,1.6500
2023-04-28T04:43:50.326Z,2.0500
2023-04-28T04:44:54.632Z,2.6667
2023-04-28T04:45:58.928Z,1.9000
2023-04-28T04:47:03.252Z,1.4167
2023-04-28T04:48:07.595Z,1.5667
2023-04-28T04:49:11.942Z,1.7000
2023-04-28T04:50:16.233Z,1.9500
2023-04-28T04:51:20.524Z,2.1500
2023-04-28T04:52:24.827Z,1.5500
2023-04-28T04:53:29.159Z,1.1167
2023-04-28T04:54:33.455Z,1.0667
2023-04-28T04:55:37.743Z,1.3333
2023-04-28T04:56:42.047Z,1.5833
2023-04-28T04:57:46.347Z,2.1167
2023-04-28T04:58:50.664Z,2.7167
2023-04-28T04:59:54.952Z,1.8833
2023-04-28T05:00:59.280Z,1.7167
2023-04-28T05:02:03.647Z,1.9667
2023-04-28T05:03:08.051Z,2.1000
2023-04-28T05:04:12.566Z,2.1667
2023-04-28T05:05:21.191Z,1.5500
2023-04-28T05:06:20.558Z,1.1091
2023-04-28T05:07:24.856Z,1.0000
2023-04-28T05:08:29.178Z,1.1167
2023-04-28T05:09:33.502Z,1.3500
2023-04-28T05:10:37.838Z,1.7333
2023-04-28T05:11:42.129Z,2.4833
2023-04-28T05:12:49.024Z,2.5833
2023-04-28T05:13:48.279Z,1.6727
2023-04-28T05:14:52.571Z,1.6500
2023-04-28T05:15:56.906Z,1.8000
2023-04-28T05:17:01.238Z,2.0833
2023-04-28T05:18:05.619Z,2.4667
2023-04-28T05:19:09.934Z,2.2333
2023-04-28T05:20:14.249Z,1.4167
2023-04-28T05:21:18.562Z,1.2000
2023-04-28T05:22:22.852Z,1.3500
2023-04-28T05:23:27.161Z,1.5667
2023-04-28T05:24:31.450Z,1.9667
2023-04-28T05:25:35.761Z,2.6167
2023-04-28T05:26:40.050Z,2.0000
2023-04-28T05:27:44.362Z,1.3667
2023-04-28T05:28:48.680Z,1.3500
2023-04-28T05:29:52.971Z,1.6000
2023-04-28T05:30:57.279Z,1.9000
2023-04-28T05:32:01.633Z,2.4500
2023-04-28T05:33:06.008Z,2.4333
2023-04-28T05:34:10.327Z,1.5333
2023-04-28T05:35:14.681Z,1.2833
2023-04-28T05:36:18.942Z,1.5000
2023-04-28T05:37:23.259Z,1.7000
2023-04-28T05:38:27.778Z,2.1167
2023-04-28T05:39:32.112Z,2.3667
2023-04-28T05:40:36.422Z,1.6167
2023-04-28T05:41:40.737Z,1.4000
2023-04-28T05:42:45.018Z,1.5333
2023-04-28T05:43:49.327Z,1.6833
2023-04-28T05:44:53.614Z,1.9500
2023-04-28T05:45:57.981Z,2.1000
2023-04-28T05:47:02.291Z,1.4500
2023-04-28T05:48:06.604Z,1.0833
2023-04-28T05:49:10.876Z,1.1333
2023-04-28T05:50:15.179Z,1.4000
2023-04-28T05:51:19.506Z,1.7167
2023-04-28T05:52:23.810Z,2.3167
2023-04-28T05:53:28.101Z,2.5333
2023-04-28T05:54:32.414Z,1.6500
2023-04-28T05:55:36.736Z,1.5000
2023-04-28T05:56:41.060Z,1.7667
2023-04-28T05:57:52.406Z,2.0333
2023-04-28T05:58:50.222Z,2.5818
2023-04-28T05:59:54.530Z,2.6500
2023-04-28T06:00:58.821Z,1.6167
2023-04-28T06:02:03.174Z,1.2167
2023-04-28T06:03:07.582Z,1.3167
2023-04-28T06:04:12.176Z,1.5500
2023-04-28T06:05:16.717Z,2.1000
2023-04-28T06:06:21.275Z,3.2667
2023-04-28T06:07:25.557Z,3.8000
2023-04-28T06:08:29.869Z,1.8833
2023-04-28T06:09:34.173Z,1.4000
2023-04-28T06:10:38.472Z,1.5333
2023-04-28T06:11:42.768Z,1.7000
2023-04-28T06:12:47.111Z,2.2333
2023-04-28T06:13:51.420Z,3.3667
2023-04-28T06:14:55.711Z,2.7000
2023-04-28T06:16:00.105Z,1.5500
2023-04-28T06:17:04.451Z,1.4000
2023-04-28T06:18:08.818Z,1.4833
2023-04-28T06:19:13.108Z,1.7333
2023-04-28T06:20:17.458Z,2.2000
2023-04-28T06:21:21.896Z,3.2167
2023-04-28T06:22:26.250Z,1.9333
2023-04-28T06:23:30.558Z,1.1167
2023-04-28T06:24:34.860Z,1.0000
2023-04-28T06:25:39.238Z,1.1000
2023-04-28T06:26:43.520Z,1.7333
2023-04-28T06:27:47.849Z,3.3500
2023-04-28T06:28:52.221Z,9.9500
2023-04-28T06:29:56.538Z,13.4000
2023-04-28T06:31:01.248Z,11.2000
2023-04-28T06:32:05.531Z,13.3000
2023-04-28T06:33:09.915Z,15.9333
2023-04-28T06:34:14.405Z,19.8667
2023-04-28T06:35:18.872Z,23.6667
2023-04-28T06:36:23.162Z,15.4667
2023-04-28T06:37:27.488Z,4.8333
2023-04-28T06:38:31.853Z,2.5667
2023-04-28T06:39:36.160Z,2.4833
2023-04-28T06:40:40.476Z,3.5833
2023-04-28T06:41:44.787Z,8.1167
2023-04-28T06:42:49.069Z,8.5667
2023-04-28T06:43:53.413Z,3.1833
2023-04-28T06:44:57.737Z,2.7167
2023-04-28T06:46:02.158Z,3.3667
2023-04-28T06:47:06.474Z,5.7833
2023-04-28T06:48:10.976Z,10.7167
2023-04-28T06:49:15.284Z,9.6667
2023-04-28T06:50:19.625Z,2.8000
2023-04-28T06:51:23.931Z,2.0000
2023-04-28T06:52:38.588Z,2.2833
2023-04-28T06:53:33.637Z,3.3273
2023-04-28T06:54:37.927Z,7.4333
2023-04-28T06:55:42.618Z,9.7667
2023-04-28T06:56:46.953Z,3.6833
2023-04-28T06:57:51.276Z,2.6167
2023-04-28T06:58:55.553Z,3.2167
2023-04-28T06:59:59.873Z,5.1833
2023-04-28T07:01:04.255Z,9.9000
2023-04-28T07:02:08.679Z,11.6833
2023-04-28T07:03:13.383Z,4.1667
2023-04-28T07:04:18.212Z,2.0667
2023-04-28T07:05:22.814Z,2.4333
2023-04-28T07:06:27.134Z,3.5167
2023-04-28T07:07:31.477Z,7.6667
2023-04-28T07:08:35.828Z,12.5500
2023-04-28T07:09:40.121Z,7.1167
2023-04-28T07:10:44.415Z,3.1500
2023-04-28T07:11:48.739Z,3.6500
2023-04-28T07:12:53.044Z,5.7000
2023-04-28T07:13:57.349Z,9.9167
2023-04-28T07:15:01.677Z,14.6833
2023-04-28T07:16:06.010Z,9.5167
2023-04-28T07:17:10.293Z,3.3333
2023-04-28T07:18:14.654Z,3.0500
2023-04-28T07:19:18.917Z,4.4667
2023-04-28T07:20:23.317Z,8.2500
2023-04-28T07:21:27.606Z,13.6667
2023-04-28T07:22:31.933Z,11.5167
2023-04-28T07:23:36.522Z,4.5333
2023-04-28T07:24:40.810Z,3.7500
2023-04-28T07:25:45.243Z,5.5333
2023-04-28T07:26:49.532Z,9.0500
2023-04-28T07:27:53.843Z,14.1833
2023-04-28T07:28:58.141Z,12.9333
2023-04-28T07:30:08.760Z,4.5500
2023-04-28T07:31:03.728Z,2.6400
2023-04-28T07:32:08.054Z,3.7000
2023-04-28T07:33:12.448Z,6.4500
2023-04-28T07:34:16.921Z,11.7000
2023-04-28T07:35:21.366Z,15.6833
2023-04-28T07:36:25.686Z,9.4000
2023-04-28T07:37:31.162Z,5.5833
2023-04-28T07:38:30.443Z,6.8364
2023-04-28T07:39:34.821Z,9.1667
2023-04-28T07:40:39.184Z,13.4167
2023-04-28T07:41:43.469Z,17.1167
2023-04-28T07:42:47.790Z,10.4500
2023-04-28T07:43:52.099Z,4.4333
2023-04-28T07:44:56.425Z,4.4167
2023-04-28T07:46:00.781Z,6.6500
2023-04-28T07:47:05.270Z,10.8000
2023-04-28T07:48:09.555Z,15.6000
2023-04-28T07:49:13.842Z,11.2500
2023-04-28T07:50:18.178Z,6.2667
2023-04-28T07:51:22.607Z,6.5000
2023-04-28T07:52:26.910Z,8.6000
2023-04-28T07:53:31.249Z,12.3500
2023-04-28T07:54:37.094Z,16.0333
2023-04-28T07:55:36.244Z,9.8909
2023-04-28T07:56:40.545Z,3.6833
2023-04-28T07:57:44.858Z,3.3500
2023-04-28T07:58:49.192Z,5.1833
2023-04-28T07:59:53.477Z,9.0667
2023-04-28T08:00:57.784Z,14.2667
2023-04-28T08:02:02.129Z,11.1667
2023-04-28T08:03:06.568Z,3.7667
2023-04-28T08:04:11.193Z,2.9333
2023-04-28T08:05:16.048Z,4.9833
2023-04-28T08:06:20.461Z,8.6333
2023-04-28T08:07:24.738Z,14.1833
2023-04-28T08:08:29.041Z,15.1833
2023-04-28T08:09:33.340Z,8.9000
2023-04-28T08:10:37.670Z,7.7333
2023-04-28T08:11:41.959Z,9.5333
2023-04-28T08:12:46.366Z,12.5667
2023-04-28T08:13:50.660Z,16.3000
2023-04-28T08:14:54.940Z,10.8000
2023-04-28T08:15:59.503Z,4.6500
2023-04-28T08:17:03.811Z,2.2167
2023-04-28T08:18:08.215Z,1.4833
2023-04-28T08:19:12.585Z,1.0500
2023-04-28T08:20:16.900Z,1.1500
2023-04-28T08:21:21.515Z,1.1000
2023-04-28T08:22:25.865Z,1.0000
2023-04-28T08:23:30.152Z,1.2333
2023-04-28T08:24:34.501Z,1.7333
2023-04-28T08:25:38.850Z,3.8000
2023-04-28T08:26:43.157Z,11.4667
2023-04-28T08:27:47.476Z,19.6833
2023-04-28T08:28:51.787Z,20.4333
2023-04-28T08:29:56.092Z,21.7500
2023-04-28T08:31:00.430Z,24.4500
2023-04-28T08:32:04.758Z,28.2500
2023-04-28T08:33:09.104Z,33.1167
2023-04-28T08:34:15.830Z,29.1667
2023-04-28T08:35:15.488Z,13.9455
2023-04-28T08:36:19.812Z,4.9167
2023-04-28T08:37:24.100Z,2.8833
2023-04-28T08:38:28.421Z,3.5000
2023-04-28T08:39:32.710Z,7.8000
2023-04-28T08:40:37.051Z,13.2833
2023-04-28T08:41:41.328Z,7.1333
2023-04-28T08:42:45.629Z,2.6000
2023-04-28T08:43:50.047Z,2.6167
2023-04-28T08:44:54.346Z,3.8333
2023-04-28T08:45:58.631Z,8.3667
2023-04-28T08:47:02.996Z,14.7500
2023-04-28T08:48:07.269Z,10.8667
2023-04-28T08:49:11.582Z,3.7667
2023-04-28T08:50:15.876Z,3.1500
2023-04-28T08:51:20.188Z,4.4167
2023-04-28T08:52:24.483Z,8.6167
2023-04-28T08:53:28.800Z,14.8000
2023-04-28T08:54:33.328Z,12.1500
2023-04-28T08:55:38.086Z,3.5000
2023-04-28T08:56:42.401Z,2.2500
2023-04-28T08:57:46.686Z,3.0333
2023-04-28T08:58:51.009Z,5.8000
2023-04-28T08:59:55.326Z,12.2667
2023-04-28T09:00:59.621Z,14.9500
2023-04-28T09:02:04.003Z,7.0000
2023-04-28T09:03:08.391Z,3.9167
2023-04-28T09:04:14.411Z,5.2333
2023-04-28T09:05:14.178Z,8.4727
2023-04-28T09:06:18.615Z,13.9833
2023-04-28T09:07:22.902Z,17.5000
2023-04-28T09:08:27.222Z,9.0500
2023-04-28T09:09:34.767Z,3.9167
2023-04-28T09:10:34.550Z,4.1818
2023-04-28T09:11:38.849Z,6.6833
2023-04-28T09:12:43.167Z,11.9500
2023-04-28T09:13:47.477Z,16.7500
2023-04-28T09:14:51.785Z,9.5667
2023-04-28T09:15:56.086Z,3.4333
2023-04-28T09:17:00.432Z,3.4333
2023-04-28T09:18:04.823Z,5.4167
2023-04-28T09:19:09.150Z,10.3333
2023-04-28T09:20:13.465Z,16.3333
2023-04-28T09:21:17.764Z,11.8833
2023-04-28T09:22:26.278Z,6.1500
2023-04-28T09:23:26.972Z,6.2545
2023-04-28T09:24:31.260Z,8.5500
2023-04-28T09:25:35.575Z,13.1000
2023-04-28T09:26:39.877Z,18.0167
2023-04-28T09:27:44.203Z,11.4000
2023-04-28T09:28:48.697Z,3.4500
2023-04-28T09:29:52.991Z,2.7833
2023-04-28T09:30:57.363Z,4.2667
2023-04-28T09:32:01.680Z,8.5000
2023-04-28T09:33:06.004Z,14.9500
2023-04-28T09:34:13.791Z,13.4667
2023-04-28T09:35:12.908Z,5.9273
2023-04-28T09:36:17.189Z,5.0500
2023-04-28T09:37:21.503Z,7.3667
2023-04-28T09:38:25.792Z,11.3500
2023-04-28T09:39:30.115Z,17.2667
2023-04-28T09:40:34.402Z,15.8000
2023-04-28T09:41:38.749Z,6.8667
2023-04-28T09:42:43.088Z,4.4000
2023-04-28T09:43:47.358Z,6.1500
2023-04-28T09:44:51.695Z,9.8333
2023-04-28T09:45:56.072Z,15.6500
2023-04-28T09:47:00.348Z,15.9667
2023-04-28T09:48:04.741Z,7.8000
2023-04-28T09:49:09.047Z,5.5167
2023-04-28T09:50:13.392Z,7.3000
2023-04-28T09:51:17.659Z,10.8500
2023-04-28T09:52:21.978Z,16.3833
2023-04-28T09:53:26.281Z,15.8667
2023-04-28T09:54:30.618Z,5.9667
2023-04-28T09:55:34.901Z,2.8333
2023-04-28T09:56:40.033Z,3.8667
2023-04-28T09:57:44.308Z,7.2667
2023-04-28T09:58:48.620Z,13.1833
2023-04-28T09:59:52.911Z,17.3000
2023-04-28T10:00:57.252Z,10.3000
2023-04-28T10:02:12.787Z,6.4667
2023-04-28T10:03:06.520Z,8.2727
2023-04-28T10:04:10.990Z,11.2333
2023-04-28T10:05:15.582Z,16.4333
2023-04-28T10:06:20.318Z,19.3667
2023-04-28T10:07:24.629Z,10.7333
2023-04-28T10:08:29.206Z,5.1500
2023-04-28T10:09:33.487Z,5.9500
2023-04-28T10:10:37.783Z,8.9667
2023-04-28T10:11:42.454Z,14.1333
2023-04-28T10:12:46.754Z,18.4500
2023-04-28T10:13:51.032Z,11.2667
2023-04-28T10:14:55.349Z,5.4333
2023-04-28T10:15:59.690Z,6.1333
2023-04-28T10:17:03.993Z,8.9667
2023-04-28T10:18:08.340Z,13.8333
2023-04-28T10:19:12.633Z,18.6667
2023-04-28T10:20:16.920Z,12.1667
2023-04-28T10:21:21.240Z,5.2333
2023-04-28T10:22:25.554Z,5.3333
2023-04-28T10:23:29.846Z,8.2000
2023-04-28T10:24:34.134Z,12.9333
2023-04-28T10:25:38.422Z,13.5833
2023-04-28T10:26:42.747Z,6.3333
2023-04-28T10:27:47.034Z,2.6833
2023-04-28T10:28:51.364Z,1.6833
2023-04-28T10:29:55.649Z,1.3000
2023-04-28T10:31:00.017Z,1.0500
2023-04-28T10:32:04.300Z,1.0000
2023-04-28T10:33:08.685Z,1.0333
2023-04-28T10:34:12.976Z,1.1667
2023-04-28T10:35:17.285Z,1.2000
2023-04-28T10:36:29.952Z,1.2167
2023-04-28T10:37:26.476Z,1.2000
2023-04-28T10:38:30.796Z,0.9667
2023-04-28T10:39:35.094Z,0.8000
2023-04-28T10:40:39.377Z,1.1833
2023-04-28T10:41:43.690Z,2.4167
2023-04-28T10:42:47.993Z,7.1167
2023-04-28T10:43:52.295Z,16.4500
2023-04-28T10:44:56.597Z,25.2000
2023-04-28T10:46:01.010Z,32.3833
2023-04-28T10:47:05.435Z,39.9333
2023-04-28T10:48:09.742Z,47.2167
2023-04-28T10:49:14.285Z,53.9167
2023-04-28T10:50:20.126Z,55.9167
2023-04-28T10:51:20.930Z,40.5455
2023-04-28T10:52:25.252Z,22.3500
2023-04-28T10:53:29.648Z,10.2500
2023-04-28T10:54:33.970Z,6.4000
2023-04-28T10:55:38.282Z,8.0667
2023-04-28T10:56:42.808Z,13.4000
2023-04-28T10:57:47.141Z,20.1333
2023-04-28T10:58:51.499Z,17.4000
2023-04-28T10:59:55.811Z,13.7833
2023-04-28T11:01:00.121Z,14.7167
2023-04-28T11:02:04.550Z,17.4000
2023-04-28T11:03:09.045Z,22.1333
2023-04-28T11:04:14.052Z,25.6500
2023-04-28T11:05:18.604Z,16.0333
2023-04-28T11:06:23.311Z,6.2000
2023-04-28T11:07:27.600Z,3.8500
2023-04-28T11:08:31.956Z,5.1000
2023-04-28T11:09:36.236Z,9.3333
2023-04-28T11:10:40.548Z,15.5333
2023-04-28T11:11:44.849Z,13.1667
2023-04-28T11:12:49.155Z,5.5833
2023-04-28T11:13:53.475Z,4.3333
2023-04-28T11:14:57.747Z,6.5000
2023-04-28T11:16:02.161Z,10.4500
2023-04-28T11:17:06.437Z,12.0833
2023-04-28T11:18:10.761Z,7.4333
2023-04-28T11:19:15.351Z,1.9833
2023-04-28T11:20:19.658Z,1.5167
2023-04-28T11:21:23.988Z,2.2833
2023-04-28T11:22:28.285Z,3.7667
2023-04-28T11:23:32.631Z,9.6833
2023-04-28T11:24:36.915Z,16.0667
2023-04-28T11:25:41.232Z,11.6667
2023-04-28T11:26:45.548Z,9.1500
2023-04-28T11:27:49.850Z,10.3167
2023-04-28T11:28:54.176Z,13.2000
2023-04-28T11:29:58.473Z,18.0667
2023-04-28T11:31:02.785Z,20.2833
2023-04-28T11:32:07.180Z,10.4167
2023-04-28T11:33:11.664Z,3.6333
2023-04-28T11:34:15.954Z,3.2167
2023-04-28T11:35:20.242Z,4.7333
2023-04-28T11:36:24.562Z,9.3000
2023-04-28T11:37:28.846Z,14.8000
2023-04-28T11:38:33.179Z,9.4667
2023-04-28T11:39:37.503Z,4.0000
2023-04-28T11:40:41.803Z,4.2667
2023-04-28T11:41:46.406Z,6.6167
2023-04-28T11:42:50.707Z,11.2667
2023-04-28T11:43:55.030Z,16.6500
2023-04-28T11:44:59.317Z,11.2833
2023-04-28T11:46:03.685Z,4.2167
2023-04-28T11:47:08.020Z,3.6500
2023-04-28T11:48:12.333Z,5.5167
2023-04-28T11:49:16.613Z,9.7833
2023-04-28T11:50:21.033Z,15.5833
2023-04-28T11:51:25.308Z,12.2000
2023-04-28T11:52:29.642Z,4.2833
2023-04-28T11:53:33.968Z,3.1833
2023-04-28T11:54:38.268Z,5.0667
2023-04-28T11:55:42.576Z,8.9833
2023-04-28T11:56:46.883Z,15.0500
2023-04-28T11:57:51.186Z,14.7833
2023-04-28T11:58:55.536Z,5.9500
2023-04-28T11:59:59.817Z,3.2667
2023-04-28T12:01:04.145Z,4.9167
2023-04-28T12:02:08.460Z,8.3167
2023-04-28T12:03:12.821Z,14.0167
2023-04-28T12:04:17.241Z,16.9333
2023-04-28T12:05:21.670Z,11.6833
2023-04-28T12:06:25.942Z,11.2333
2023-04-28T12:07:30.233Z,13.0000
2023-04-28T12:08:34.547Z,16.5333
2023-04-28T12:09:38.885Z,21.3000
2023-04-28T12:10:43.173Z,17.2667
2023-04-28T12:11:47.504Z,5.6500
2023-04-28T12:12:53.405Z,2.4000
2023-04-28T12:13:52.668Z,2.8545
2023-04-28T12:14:56.993Z,4.7500
2023-04-28T12:16:01.306Z,10.0667
2023-04-28T12:17:05.605Z,14.3000
2023-04-28T12:18:09.970Z,9.3667
2023-04-28T12:19:14.316Z,8.2833
2023-04-28T12:20:18.625Z,10.1833
2023-04-28T12:21:22.923Z,13.4000
2023-04-28T12:22:27.240Z,18.3833
2023-04-28T12:23:31.550Z,18.1167
2023-04-28T12:24:35.860Z,7.4833
2023-04-28T12:25:40.148Z,2.8500
2023-04-28T12:26:44.486Z,3.2500
2023-04-28T12:27:48.767Z,5.6000
2023-04-28T12:28:53.081Z,10.7833
2023-04-28T12:29:57.371Z,15.2500
2023-04-28T12:31:01.761Z,8.9833
2023-04-28T12:32:06.049Z,4.6500
2023-04-28T12:33:10.405Z,6.2833
2023-04-28T12:34:14.833Z,9.1500
2023-04-28T12:35:19.166Z,13.9833
2023-04-28T12:36:23.479Z,17.8833
2023-04-28T12:37:27.775Z,10.6167
2023-04-28T12:38:32.102Z,4.7833
2023-04-28T12:39:39.369Z,5.2833
2023-04-28T12:40:38.663Z,8.0182
2023-04-28T12:41:42.973Z,12.4833
2023-04-28T12:42:47.288Z,17.5000
2023-04-28T12:43:51.589Z,11.5500
2023-04-28T12:44:56.034Z,4.2667
2023-04-28T12:46:00.375Z,3.9333
2023-04-28T12:47:04.671Z,6.6500
2023-04-28T12:48:09.008Z,10.9333
2023-04-28T12:49:13.275Z,16.7667
2023-04-28T12:50:17.594Z,13.9833
2023-04-28T12:51:22.026Z,6.4833
2023-04-28T12:52:26.309Z,5.4167
2023-04-28T12:53:30.779Z,8.0667
2023-04-28T12:54:35.078Z,11.9833
2023-04-28T12:55:39.403Z,17.6833
2023-04-28T12:56:43.695Z,15.9833
2023-04-28T12:57:48.015Z,7.0667
2023-04-28T12:58:52.308Z,4.3667
2023-04-28T12:59:56.643Z,6.6167
2023-04-28T13:01:00.934Z,10.0667
2023-04-28T13:02:05.371Z,15.6833
2023-04-28T13:03:09.958Z,16.9333
2023-04-28T13:04:14.468Z,11.7833
2023-04-28T13:05:18.916Z,11.5167
2023-04-28T13:06:23.204Z,13.3333
2023-04-28T13:07:27.531Z,16.8667
2023-04-28T13:08:31.829Z,21.2333
2023-04-28T13:09:38.347Z,15.6500
2023-04-28T13:10:37.452Z,5.1818
2023-04-28T13:11:41.780Z,2.8167
2023-04-28T13:12:46.117Z,3.6500
2023-04-28T13:13:50.387Z,6.5167
2023-04-28T13:14:54.710Z,12.1500
2023-04-28T13:15:59.023Z,13.1667
2023-04-28T13:17:03.321Z,6.7833